sensor_id;sensor_type;location;lat;lon;timestamp;temperature;humidity
32877;DHT22;19226;51.600;8.034;2022-11-15T00:00:31;9.70;99.90
32877;DHT22;19226;51.600;8.034;2022-11-15T00:07:03;9.90;99.90
32877;DHT22;19226;51.600;8.034;2022-11-15T00:12:53;10.00;99.90
32877;DHT22;19226;51.600;8.034;2022-11-15T00:19:06;10.10;99.90
32877;DHT22;19226;51.600;8.034;2022-11-15T00:24:54;10.20;99.90
32877;DHT22;19226;51.600;8.034;2022-11-15T00:27:42;10.30;99.90
32877;DHT22;19226;51.600;8.034;2022-11-15T00:30:26;10.40;99.90
32877;DHT22;19226;51.600;8.034;2022-11-15T00:33:12;10.40;99.90
32877;DHT22;19226;51.600;8.034;2022-11-15T00:36:04;10.50;99.90
32877;DHT22;19226;51.600;8.034;2022-11-15T00:38:49;10.60;99.90
32877;DHT22;19226;51.600;8.034;2022-11-15T00:41:34;10.70;99.90
32877;DHT22;19226;51.600;8.034;2022-11-15T00:44:22;10.70;99.90
32877;DHT22;19226;51.600;8.034;2022-11-15T00:47:07;10.80;99.90
32877;DHT22;19226;51.600;8.034;2022-11-15T00:53:04;11.00;99.90
32877;DHT22;19226;51.600;8.034;2022-11-15T00:55:49;11.10;99.90
32877;DHT22;19226;51.600;8.034;2022-11-15T00:58:37;11.20;99.90
32877;DHT22;19226;51.600;8.034;2022-11-15T01:01:21;11.20;99.90
32877;DHT22;19226;51.600;8.034;2022-11-15T01:04:09;11.30;99.90
32877;DHT22;19226;51.600;8.034;2022-11-15T01:09:48;11.40;99.90
32877;DHT22;19226;51.600;8.034;2022-11-15T01:16:08;11.50;99.90
32877;DHT22;19226;51.600;8.034;2022-11-15T01:18:59;11.50;99.90
32877;DHT22;19226;51.600;8.034;2022-11-15T01:21:48;11.50;99.90
32877;DHT22;19226;51.600;8.034;2022-11-15T01:32:00;11.60;99.90
32877;DHT22;19226;51.600;8.034;2022-11-15T01:34:52;11.50;99.90
32877;DHT22;19226;51.600;8.034;2022-11-15T01:37:37;11.50;99.90
32877;DHT22;19226;51.600;8.034;2022-11-15T01:40:21;11.50;99.90
32877;DHT22;19226;51.600;8.034;2022-11-15T01:43:40;11.50;99.90
32877;DHT22;19226;51.600;8.034;2022-11-15T01:46:32;11.50;99.90
32877;DHT22;19226;51.600;8.034;2022-11-15T01:49:19;11.50;99.90
32877;DHT22;19226;51.600;8.034;2022-11-15T01:52:06;11.60;99.90
32877;DHT22;19226;51.600;8.034;2022-11-15T01:54:58;11.60;99.90
32877;DHT22;19226;51.600;8.034;2022-11-15T01:57:43;11.60;99.90
32877;DHT22;19226;51.600;8.034;2022-11-15T02:00:32;11.60;99.90
32877;DHT22;19226;51.600;8.034;2022-11-15T02:03:19;11.70;99.90
32877;DHT22;19226;51.600;8.034;2022-11-15T02:08:55;11.80;99.90
32877;DHT22;19226;51.600;8.034;2022-11-15T02:11:43;11.90;99.90
32877;DHT22;19226;51.600;8.034;2022-11-15T02:14:30;11.90;99.90
32877;DHT22;19226;51.600;8.034;2022-11-15T02:26:08;12.00;99.90
32877;DHT22;19226;51.600;8.034;2022-11-15T02:32:18;12.00;99.90
32877;DHT22;19226;51.600;8.034;2022-11-15T02:35:14;12.10;99.90
32877;DHT22;19226;51.600;8.034;2022-11-15T02:38:07;12.10;99.90
32877;DHT22;19226;51.600;8.034;2022-11-15T02:40:54;12.10;99.90
32877;DHT22;19226;51.600;8.034;2022-11-15T02:43:50;12.10;99.90
32877;DHT22;19226;51.600;8.034;2022-11-15T02:46:41;12.10;99.90
32877;DHT22;19226;51.600;8.034;2022-11-15T02:49:48;12.10;99.90
32877;DHT22;19226;51.600;8.034;2022-11-15T02:52:33;12.10;99.90
32877;DHT22;19226;51.600;8.034;2022-11-15T02:58:19;12.10;99.90
32877;DHT22;19226;51.600;8.034;2022-11-15T03:07:15;12.10;99.90
32877;DHT22;19226;51.600;8.034;2022-11-15T03:10:06;12.10;99.90
32877;DHT22;19226;51.600;8.034;2022-11-15T03:12:57;12.10;99.90
32877;DHT22;19226;51.600;8.034;2022-11-15T03:16:08;12.20;99.90
32877;DHT22;19226;51.600;8.034;2022-11-15T03:18:55;12.20;99.90
32877;DHT22;19226;51.600;8.034;2022-11-15T03:21:41;12.30;99.90
32877;DHT22;19226;51.600;8.034;2022-11-15T03:24:26;12.30;99.90
32877;DHT22;19226;51.600;8.034;2022-11-15T03:27:14;12.30;99.90
32877;DHT22;19226;51.600;8.034;2022-11-15T03:30:00;12.40;99.90
32877;DHT22;19226;51.600;8.034;2022-11-15T03:32:51;12.40;99.90
32877;DHT22;19226;51.600;8.034;2022-11-15T03:35:38;12.50;99.90
32877;DHT22;19226;51.600;8.034;2022-11-15T03:38:25;12.50;99.90
32877;DHT22;19226;51.600;8.034;2022-11-15T03:41:18;12.60;99.90
32877;DHT22;19226;51.600;8.034;2022-11-15T03:47:16;12.70;99.90
32877;DHT22;19226;51.600;8.034;2022-11-15T03:49:59;12.70;99.90
32877;DHT22;19226;51.600;8.034;2022-11-15T03:52:46;12.80;99.90
32877;DHT22;19226;51.600;8.034;2022-11-15T03:55:31;12.80;99.90
32877;DHT22;19226;51.600;8.034;2022-11-15T03:58:17;12.80;99.90
32877;DHT22;19226;51.600;8.034;2022-11-15T04:01:02;12.90;99.90
32877;DHT22;19226;51.600;8.034;2022-11-15T04:03:46;12.90;99.90
32877;DHT22;19226;51.600;8.034;2022-11-15T04:06:31;12.90;99.90
32877;DHT22;19226;51.600;8.034;2022-11-15T04:09:16;13.00;99.90
32877;DHT22;19226;51.600;8.034;2022-11-15T04:12:00;13.00;99.90
32877;DHT22;19226;51.600;8.034;2022-11-15T04:14:46;13.00;99.90
32877;DHT22;19226;51.600;8.034;2022-11-15T04:17:54;13.00;99.90
32877;DHT22;19226;51.600;8.034;2022-11-15T04:20:47;13.10;99.90
32877;DHT22;19226;51.600;8.034;2022-11-15T04:23:50;13.10;99.90
32877;DHT22;19226;51.600;8.034;2022-11-15T04:27:00;13.10;99.90
32877;DHT22;19226;51.600;8.034;2022-11-15T04:29:48;13.10;99.90
32877;DHT22;19226;51.600;8.034;2022-11-15T04:32:33;13.10;99.90
32877;DHT22;19226;51.600;8.034;2022-11-15T04:35:17;13.20;99.90
32877;DHT22;19226;51.600;8.034;2022-11-15T04:38:03;13.20;99.90
32877;DHT22;19226;51.600;8.034;2022-11-15T04:40:48;13.20;99.90
32877;DHT22;19226;51.600;8.034;2022-11-15T04:43:33;13.20;99.90
32877;DHT22;19226;51.600;8.034;2022-11-15T04:46:17;13.20;99.90
32877;DHT22;19226;51.600;8.034;2022-11-15T04:49:03;13.20;99.90
32877;DHT22;19226;51.600;8.034;2022-11-15T04:51:49;13.20;99.90
32877;DHT22;19226;51.600;8.034;2022-11-15T04:54:33;13.30;99.90
32877;DHT22;19226;51.600;8.034;2022-11-15T04:57:18;13.30;99.90
32877;DHT22;19226;51.600;8.034;2022-11-15T05:00:07;13.30;99.90
32877;DHT22;19226;51.600;8.034;2022-11-15T05:02:52;13.30;99.90
32877;DHT22;19226;51.600;8.034;2022-11-15T05:05:58;13.40;99.90
32877;DHT22;19226;51.600;8.034;2022-11-15T05:08:43;13.40;99.90
32877;DHT22;19226;51.600;8.034;2022-11-15T05:11:31;13.40;99.90
32877;DHT22;19226;51.600;8.034;2022-11-15T05:14:16;13.40;99.90
32877;DHT22;19226;51.600;8.034;2022-11-15T05:17:00;13.50;99.90
32877;DHT22;19226;51.600;8.034;2022-11-15T05:19:47;13.50;99.90
32877;DHT22;19226;51.600;8.034;2022-11-15T05:22:39;13.50;99.90
32877;DHT22;19226;51.600;8.034;2022-11-15T05:25:26;13.50;99.90
32877;DHT22;19226;51.600;8.034;2022-11-15T05:28:10;13.50;99.90
32877;DHT22;19226;51.600;8.034;2022-11-15T05:31:15;13.50;99.90
32877;DHT22;19226;51.600;8.034;2022-11-15T05:34:01;13.60;99.90
32877;DHT22;19226;51.600;8.034;2022-11-15T05:36:48;13.60;99.90
32877;DHT22;19226;51.600;8.034;2022-11-15T05:39:32;13.60;99.90
32877;DHT22;19226;51.600;8.034;2022-11-15T05:42:17;13.60;99.90
32877;DHT22;19226;51.600;8.034;2022-11-15T05:45:03;13.60;99.90
32877;DHT22;19226;51.600;8.034;2022-11-15T05:47:51;13.50;99.90
32877;DHT22;19226;51.600;8.034;2022-11-15T05:50:36;13.50;99.90
32877;DHT22;19226;51.600;8.034;2022-11-15T05:53:25;13.50;99.90
32877;DHT22;19226;51.600;8.034;2022-11-15T05:56:16;13.50;99.90
32877;DHT22;19226;51.600;8.034;2022-11-15T05:59:00;13.50;99.90
32877;DHT22;19226;51.600;8.034;2022-11-15T06:01:45;13.50;99.90
32877;DHT22;19226;51.600;8.034;2022-11-15T06:04:31;13.50;99.90
32877;DHT22;19226;51.600;8.034;2022-11-15T06:07:15;13.40;99.90
32877;DHT22;19226;51.600;8.034;2022-11-15T06:13:04;13.40;99.90
32877;DHT22;19226;51.600;8.034;2022-11-15T06:15:49;13.40;99.90
32877;DHT22;19226;51.600;8.034;2022-11-15T06:18:34;13.40;99.90
32877;DHT22;19226;51.600;8.034;2022-11-15T06:27:24;13.40;99.90
32877;DHT22;19226;51.600;8.034;2022-11-15T06:30:09;13.40;99.90
32877;DHT22;19226;51.600;8.034;2022-11-15T06:33:03;13.40;99.90
32877;DHT22;19226;51.600;8.034;2022-11-15T06:35:49;13.40;99.90
32877;DHT22;19226;51.600;8.034;2022-11-15T06:38:34;13.40;99.90
32877;DHT22;19226;51.600;8.034;2022-11-15T06:44:24;13.30;99.90
32877;DHT22;19226;51.600;8.034;2022-11-15T06:47:09;13.20;99.90
32877;DHT22;19226;51.600;8.034;2022-11-15T06:49:53;13.20;99.90
32877;DHT22;19226;51.600;8.034;2022-11-15T06:52:38;13.20;99.90
32877;DHT22;19226;51.600;8.034;2022-11-15T06:55:24;13.20;99.90
32877;DHT22;19226;51.600;8.034;2022-11-15T06:58:09;13.20;99.90
32877;DHT22;19226;51.600;8.034;2022-11-15T07:00:57;13.20;99.90
32877;DHT22;19226;51.600;8.034;2022-11-15T07:03:42;13.10;99.90
32877;DHT22;19226;51.600;8.034;2022-11-15T07:06:29;13.10;99.90
32877;DHT22;19226;51.600;8.034;2022-11-15T07:09:16;13.10;99.90
32877;DHT22;19226;51.600;8.034;2022-11-15T07:12:00;13.10;99.90
32877;DHT22;19226;51.600;8.034;2022-11-15T07:14:49;13.10;99.90
32877;DHT22;19226;51.600;8.034;2022-11-15T07:17:36;13.10;99.90
32877;DHT22;19226;51.600;8.034;2022-11-15T07:23:24;13.10;99.90
32877;DHT22;19226;51.600;8.034;2022-11-15T07:26:12;13.10;99.90
32877;DHT22;19226;51.600;8.034;2022-11-15T07:28:56;13.10;99.90
32877;DHT22;19226;51.600;8.034;2022-11-15T07:31:42;13.20;99.90
32877;DHT22;19226;51.600;8.034;2022-11-15T07:34:27;13.20;99.90
32877;DHT22;19226;51.600;8.034;2022-11-15T07:37:11;13.30;99.90
32877;DHT22;19226;51.600;8.034;2022-11-15T07:39:56;13.30;99.90
32877;DHT22;19226;51.600;8.034;2022-11-15T07:42:41;13.30;99.90
32877;DHT22;19226;51.600;8.034;2022-11-15T07:45:45;13.30;99.90
32877;DHT22;19226;51.600;8.034;2022-11-15T07:48:30;13.40;99.90
32877;DHT22;19226;51.600;8.034;2022-11-15T07:51:15;13.40;99.90
32877;DHT22;19226;51.600;8.034;2022-11-15T07:54:00;13.50;99.90
32877;DHT22;19226;51.600;8.034;2022-11-15T07:56:44;13.50;99.90
32877;DHT22;19226;51.600;8.034;2022-11-15T08:02:34;13.50;99.90
32877;DHT22;19226;51.600;8.034;2022-11-15T08:05:18;13.60;99.90
32877;DHT22;19226;51.600;8.034;2022-11-15T08:08:06;13.60;99.90
32877;DHT22;19226;51.600;8.034;2022-11-15T08:10:51;13.60;99.90
32877;DHT22;19226;51.600;8.034;2022-11-15T08:16:36;13.70;99.90
32877;DHT22;19226;51.600;8.034;2022-11-15T08:19:28;13.70;99.90
32877;DHT22;19226;51.600;8.034;2022-11-15T08:22:28;13.70;99.90
32877;DHT22;19226;51.600;8.034;2022-11-15T08:25:13;13.70;99.90
32877;DHT22;19226;51.600;8.034;2022-11-15T08:28:03;13.70;99.90
32877;DHT22;19226;51.600;8.034;2022-11-15T08:30:48;13.80;99.90
32877;DHT22;19226;51.600;8.034;2022-11-15T08:33:32;13.80;99.90
32877;DHT22;19226;51.600;8.034;2022-11-15T08:36:17;13.80;99.90
32877;DHT22;19226;51.600;8.034;2022-11-15T08:39:02;13.80;99.90
32877;DHT22;19226;51.600;8.034;2022-11-15T08:41:50;13.90;99.90
32877;DHT22;19226;51.600;8.034;2022-11-15T08:44:39;13.90;99.90
32877;DHT22;19226;51.600;8.034;2022-11-15T08:47:27;13.90;99.90
32877;DHT22;19226;51.600;8.034;2022-11-15T08:50:11;13.90;99.90
32877;DHT22;19226;51.600;8.034;2022-11-15T08:52:56;13.90;99.90
32877;DHT22;19226;51.600;8.034;2022-11-15T08:55:41;14.00;99.90
32877;DHT22;19226;51.600;8.034;2022-11-15T08:58:26;14.00;99.90
32877;DHT22;19226;51.600;8.034;2022-11-15T09:01:17;14.10;99.90
32877;DHT22;19226;51.600;8.034;2022-11-15T09:04:03;14.10;99.90
32877;DHT22;19226;51.600;8.034;2022-11-15T09:06:50;14.20;99.90
32877;DHT22;19226;51.600;8.034;2022-11-15T09:09:35;14.20;99.90
32877;DHT22;19226;51.600;8.034;2022-11-15T09:12:19;14.30;99.90
32877;DHT22;19226;51.600;8.034;2022-11-15T09:15:05;14.40;99.90
32877;DHT22;19226;51.600;8.034;2022-11-15T09:17:50;14.40;99.90
32877;DHT22;19226;51.600;8.034;2022-11-15T09:20:38;14.50;99.90
32877;DHT22;19226;51.600;8.034;2022-11-15T09:23:23;14.60;99.90
32877;DHT22;19226;51.600;8.034;2022-11-15T09:26:09;14.60;99.90
32877;DHT22;19226;51.600;8.034;2022-11-15T09:29:07;14.70;99.90
32877;DHT22;19226;51.600;8.034;2022-11-15T09:31:53;14.70;99.90
32877;DHT22;19226;51.600;8.034;2022-11-15T09:34:38;14.70;99.90
32877;DHT22;19226;51.600;8.034;2022-11-15T09:37:22;14.70;99.90
32877;DHT22;19226;51.600;8.034;2022-11-15T09:40:11;14.70;99.90
32877;DHT22;19226;51.600;8.034;2022-11-15T09:49:06;14.80;99.90
32877;DHT22;19226;51.600;8.034;2022-11-15T09:51:51;14.80;99.90
32877;DHT22;19226;51.600;8.034;2022-11-15T09:54:34;14.90;99.90
32877;DHT22;19226;51.600;8.034;2022-11-15T09:57:12;14.90;99.90
32877;DHT22;19226;51.600;8.034;2022-11-15T09:59:51;14.90;99.90
32877;DHT22;19226;51.600;8.034;2022-11-15T10:04:45;15.00;99.90
32877;DHT22;19226;51.600;8.034;2022-11-15T10:07:28;14.90;99.90
32877;DHT22;19226;51.600;8.034;2022-11-15T10:12:27;15.00;99.90
32877;DHT22;19226;51.600;8.034;2022-11-15T10:15:02;15.00;99.90
32877;DHT22;19226;51.600;8.034;2022-11-15T10:20:26;15.10;99.90
32877;DHT22;19226;51.600;8.034;2022-11-15T10:25:24;15.10;99.90
32877;DHT22;19226;51.600;8.034;2022-11-15T10:30:28;15.30;99.90
32877;DHT22;19226;51.600;8.034;2022-11-15T10:32:55;15.30;99.90
32877;DHT22;19226;51.600;8.034;2022-11-15T10:35:22;15.40;99.90
32877;DHT22;19226;51.600;8.034;2022-11-15T10:37:49;15.40;99.90
32877;DHT22;19226;51.600;8.034;2022-11-15T10:40:20;15.50;99.90
32877;DHT22;19226;51.600;8.034;2022-11-15T10:42:46;15.60;99.90
32877;DHT22;19226;51.600;8.034;2022-11-15T10:45:26;15.70;99.90
32877;DHT22;19226;51.600;8.034;2022-11-15T10:47:52;15.80;99.90
32877;DHT22;19226;51.600;8.034;2022-11-15T10:50:30;15.80;99.90
32877;DHT22;19226;51.600;8.034;2022-11-15T10:52:56;15.90;99.90
32877;DHT22;19226;51.600;8.034;2022-11-15T10:55:25;16.00;99.90
32877;DHT22;19226;51.600;8.034;2022-11-15T10:57:53;16.10;99.90
32877;DHT22;19226;51.600;8.034;2022-11-15T11:07:58;16.30;99.90
32877;DHT22;19226;51.600;8.034;2022-11-15T11:10:29;16.20;99.90
32877;DHT22;19226;51.600;8.034;2022-11-15T11:12:55;16.30;99.90
32877;DHT22;19226;51.600;8.034;2022-11-15T11:15:22;16.30;99.90
32877;DHT22;19226;51.600;8.034;2022-11-15T11:20:29;16.40;99.90
32877;DHT22;19226;51.600;8.034;2022-11-15T11:30:23;16.70;99.90
32877;DHT22;19226;51.600;8.034;2022-11-15T11:36:20;16.60;99.90
32877;DHT22;19226;51.600;8.034;2022-11-15T11:43:33;16.70;99.90
32877;DHT22;19226;51.600;8.034;2022-11-15T11:46:20;16.70;99.90
32877;DHT22;19226;51.600;8.034;2022-11-15T11:51:23;16.60;99.90
32877;DHT22;19226;51.600;8.034;2022-11-15T11:54:06;16.70;99.90
32877;DHT22;19226;51.600;8.034;2022-11-15T11:56:36;16.70;99.90
32877;DHT22;19226;51.600;8.034;2022-11-15T12:01:49;16.80;99.90
32877;DHT22;19226;51.600;8.034;2022-11-15T12:04:27;16.80;99.90
32877;DHT22;19226;51.600;8.034;2022-11-15T12:09:30;16.80;99.90
32877;DHT22;19226;51.600;8.034;2022-11-15T12:14:40;16.80;99.90
32877;DHT22;19226;51.600;8.034;2022-11-15T12:17:10;16.90;99.90
32877;DHT22;19226;51.600;8.034;2022-11-15T12:19:36;16.90;99.90
32877;DHT22;19226;51.600;8.034;2022-11-15T12:24:34;16.90;99.90
32877;DHT22;19226;51.600;8.034;2022-11-15T12:27:22;16.90;99.90
32877;DHT22;19226;51.600;8.034;2022-11-15T12:29:54;17.00;99.90
32877;DHT22;19226;51.600;8.034;2022-11-15T12:32:26;17.00;99.90
32877;DHT22;19226;51.600;8.034;2022-11-15T12:34:54;17.00;99.90
32877;DHT22;19226;51.600;8.034;2022-11-15T12:40:22;17.10;99.90
32877;DHT22;19226;51.600;8.034;2022-11-15T12:43:07;17.10;99.90
32877;DHT22;19226;51.600;8.034;2022-11-15T12:45:37;17.10;99.90
32877;DHT22;19226;51.600;8.034;2022-11-15T12:58:43;17.50;99.90
32877;DHT22;19226;51.600;8.034;2022-11-15T13:01:57;17.60;99.90
32877;DHT22;19226;51.600;8.034;2022-11-15T13:06:49;17.70;99.90
32877;DHT22;19226;51.600;8.034;2022-11-15T13:12:01;17.70;99.90
32877;DHT22;19226;51.600;8.034;2022-11-15T13:17:22;17.90;99.90
32877;DHT22;19226;51.600;8.034;2022-11-15T13:22:47;17.90;99.90
32877;DHT22;19226;51.600;8.034;2022-11-15T13:31:02;18.00;99.90
32877;DHT22;19226;51.600;8.034;2022-11-15T13:33:37;17.80;99.90
32877;DHT22;19226;51.600;8.034;2022-11-15T13:38:34;17.60;99.90
32877;DHT22;19226;51.600;8.034;2022-11-15T13:43:42;17.40;99.90
32877;DHT22;19226;51.600;8.034;2022-11-15T13:48:41;17.40;99.90
32877;DHT22;19226;51.600;8.034;2022-11-15T13:56:44;17.30;99.90
32877;DHT22;19226;51.600;8.034;2022-11-15T13:59:24;17.30;99.90
32877;DHT22;19226;51.600;8.034;2022-11-15T14:04:36;17.20;99.90
32877;DHT22;19226;51.600;8.034;2022-11-15T14:07:20;17.00;99.90
32877;DHT22;19226;51.600;8.034;2022-11-15T14:09:49;17.00;99.90
32877;DHT22;19226;51.600;8.034;2022-11-15T14:12:31;16.90;99.90
32877;DHT22;19226;51.600;8.034;2022-11-15T14:14:58;16.90;99.90
32877;DHT22;19226;51.600;8.034;2022-11-15T14:19:57;16.70;99.90
32877;DHT22;19226;51.600;8.034;2022-11-15T14:22:24;16.60;99.90
32877;DHT22;19226;51.600;8.034;2022-11-15T14:25:13;16.50;99.90
32877;DHT22;19226;51.600;8.034;2022-11-15T14:28:07;16.40;99.90
32877;DHT22;19226;51.600;8.034;2022-11-15T14:30:30;16.40;99.90
32877;DHT22;19226;51.600;8.034;2022-11-15T14:33:21;16.30;99.90
32877;DHT22;19226;51.600;8.034;2022-11-15T14:35:50;16.20;99.90
32877;DHT22;19226;51.600;8.034;2022-11-15T14:38:17;16.10;99.90
32877;DHT22;19226;51.600;8.034;2022-11-15T14:40:53;16.10;99.90
32877;DHT22;19226;51.600;8.034;2022-11-15T14:43:22;16.00;99.90
32877;DHT22;19226;51.600;8.034;2022-11-15T14:45:51;15.90;99.90
32877;DHT22;19226;51.600;8.034;2022-11-15T14:48:19;15.90;99.90
32877;DHT22;19226;51.600;8.034;2022-11-15T14:50:45;15.80;99.90
32877;DHT22;19226;51.600;8.034;2022-11-15T14:53:16;15.80;99.90
32877;DHT22;19226;51.600;8.034;2022-11-15T14:55:45;15.70;99.90
32877;DHT22;19226;51.600;8.034;2022-11-15T15:00:57;15.60;99.90
32877;DHT22;19226;51.600;8.034;2022-11-15T15:06:10;15.60;99.90
32877;DHT22;19226;51.600;8.034;2022-11-15T15:08:57;15.60;99.90
32877;DHT22;19226;51.600;8.034;2022-11-15T15:11:29;15.70;99.90
32877;DHT22;19226;51.600;8.034;2022-11-15T15:13:57;15.70;99.90
32877;DHT22;19226;51.600;8.034;2022-11-15T15:16:29;15.70;99.90
32877;DHT22;19226;51.600;8.034;2022-11-15T15:19:25;15.70;99.90
32877;DHT22;19226;51.600;8.034;2022-11-15T15:24:37;15.60;99.90
32877;DHT22;19226;51.600;8.034;2022-11-15T15:27:05;15.50;99.90
32877;DHT22;19226;51.600;8.034;2022-11-15T15:36:29;15.30;99.90
32877;DHT22;19226;51.600;8.034;2022-11-15T15:38:55;15.20;99.90
32877;DHT22;19226;51.600;8.034;2022-11-15T15:41:23;15.10;99.90
32877;DHT22;19226;51.600;8.034;2022-11-15T15:43:49;15.10;99.90
32877;DHT22;19226;51.600;8.034;2022-11-15T15:46:16;15.00;99.90
32877;DHT22;19226;51.600;8.034;2022-11-15T15:48:42;14.90;99.90
32877;DHT22;19226;51.600;8.034;2022-11-15T15:51:08;14.90;99.90
32877;DHT22;19226;51.600;8.034;2022-11-15T15:53:34;14.80;99.90
32877;DHT22;19226;51.600;8.034;2022-11-15T15:56:03;14.80;99.90
32877;DHT22;19226;51.600;8.034;2022-11-15T15:58:30;14.70;99.90
32877;DHT22;19226;51.600;8.034;2022-11-15T16:00:57;14.60;99.90
32877;DHT22;19226;51.600;8.034;2022-11-15T16:03:24;14.60;99.90
32877;DHT22;19226;51.600;8.034;2022-11-15T16:05:50;14.50;99.90
32877;DHT22;19226;51.600;8.034;2022-11-15T16:08:20;14.40;99.90
32877;DHT22;19226;51.600;8.034;2022-11-15T16:10:46;14.40;99.90
32877;DHT22;19226;51.600;8.034;2022-11-15T16:13:14;14.40;99.90
32877;DHT22;19226;51.600;8.034;2022-11-15T16:15:40;14.40;99.90
32877;DHT22;19226;51.600;8.034;2022-11-15T16:18:06;14.40;99.90
32877;DHT22;19226;51.600;8.034;2022-11-15T16:23:02;14.30;99.90
32877;DHT22;19226;51.600;8.034;2022-11-15T16:25:28;14.20;99.90
32877;DHT22;19226;51.600;8.034;2022-11-15T16:27:54;14.20;99.90
32877;DHT22;19226;51.600;8.034;2022-11-15T16:30:20;14.20;99.90
32877;DHT22;19226;51.600;8.034;2022-11-15T16:35:32;14.10;99.90
32877;DHT22;19226;51.600;8.034;2022-11-15T16:37:58;14.10;99.90
32877;DHT22;19226;51.600;8.034;2022-11-15T16:40:29;14.10;99.90
32877;DHT22;19226;51.600;8.034;2022-11-15T16:42:58;14.10;99.90
32877;DHT22;19226;51.600;8.034;2022-11-15T16:45:32;14.10;99.90
32877;DHT22;19226;51.600;8.034;2022-11-15T16:48:01;14.00;99.90
32877;DHT22;19226;51.600;8.034;2022-11-15T16:50:29;14.00;99.90
32877;DHT22;19226;51.600;8.034;2022-11-15T16:52:56;14.00;99.90
32877;DHT22;19226;51.600;8.034;2022-11-15T16:55:23;13.90;99.90
32877;DHT22;19226;51.600;8.034;2022-11-15T16:57:49;13.90;99.90
32877;DHT22;19226;51.600;8.034;2022-11-15T17:00:18;13.90;99.90
32877;DHT22;19226;51.600;8.034;2022-11-15T17:02:45;13.90;99.90
32877;DHT22;19226;51.600;8.034;2022-11-15T17:05:23;13.80;99.90
32877;DHT22;19226;51.600;8.034;2022-11-15T17:07:54;13.80;99.90
32877;DHT22;19226;51.600;8.034;2022-11-15T17:10:24;13.80;99.90
32877;DHT22;19226;51.600;8.034;2022-11-15T17:12:50;13.90;99.90
32877;DHT22;19226;51.600;8.034;2022-11-15T17:15:17;13.90;99.90
32877;DHT22;19226;51.600;8.034;2022-11-15T17:17:44;13.80;99.90
32877;DHT22;19226;51.600;8.034;2022-11-15T17:20:13;13.90;99.90
32877;DHT22;19226;51.600;8.034;2022-11-15T17:22:39;13.80;99.90
32877;DHT22;19226;51.600;8.034;2022-11-15T17:25:06;13.80;99.90
32877;DHT22;19226;51.600;8.034;2022-11-15T17:27:32;13.80;99.90
32877;DHT22;19226;51.600;8.034;2022-11-15T17:33:07;13.80;99.90
32877;DHT22;19226;51.600;8.034;2022-11-15T17:35:33;13.80;99.90
32877;DHT22;19226;51.600;8.034;2022-11-15T17:38:04;13.70;99.90
32877;DHT22;19226;51.600;8.034;2022-11-15T17:40:36;13.70;99.90
32877;DHT22;19226;51.600;8.034;2022-11-15T17:43:03;13.70;99.90
32877;DHT22;19226;51.600;8.034;2022-11-15T17:45:29;13.70;99.90
32877;DHT22;19226;51.600;8.034;2022-11-15T17:47:57;13.70;99.90
32877;DHT22;19226;51.600;8.034;2022-11-15T17:50:23;13.70;99.90
32877;DHT22;19226;51.600;8.034;2022-11-15T17:52:51;13.70;99.90
32877;DHT22;19226;51.600;8.034;2022-11-15T17:55:20;13.70;99.90
32877;DHT22;19226;51.600;8.034;2022-11-15T17:57:46;13.70;99.90
32877;DHT22;19226;51.600;8.034;2022-11-15T18:00:14;13.70;99.90
32877;DHT22;19226;51.600;8.034;2022-11-15T18:02:42;13.70;99.90
32877;DHT22;19226;51.600;8.034;2022-11-15T18:05:08;13.80;99.90
32877;DHT22;19226;51.600;8.034;2022-11-15T18:07:37;13.80;99.90
32877;DHT22;19226;51.600;8.034;2022-11-15T18:10:03;13.80;99.90
32877;DHT22;19226;51.600;8.034;2022-11-15T18:12:29;13.80;99.90
32877;DHT22;19226;51.600;8.034;2022-11-15T18:14:59;13.80;99.90
32877;DHT22;19226;51.600;8.034;2022-11-15T18:17:26;13.90;99.90
32877;DHT22;19226;51.600;8.034;2022-11-15T18:19:52;13.90;99.90
32877;DHT22;19226;51.600;8.034;2022-11-15T18:22:19;13.90;99.90
32877;DHT22;19226;51.600;8.034;2022-11-15T18:24:46;13.90;99.90
32877;DHT22;19226;51.600;8.034;2022-11-15T18:33:26;13.90;99.90
32877;DHT22;19226;51.600;8.034;2022-11-15T18:35:59;13.90;99.90
32877;DHT22;19226;51.600;8.034;2022-11-15T18:38:28;13.90;99.90
32877;DHT22;19226;51.600;8.034;2022-11-15T18:41:05;13.90;99.90
32877;DHT22;19226;51.600;8.034;2022-11-15T18:43:32;13.90;99.90
32877;DHT22;19226;51.600;8.034;2022-11-15T18:46:31;13.90;99.90
32877;DHT22;19226;51.600;8.034;2022-11-15T18:48:50;14.00;99.90
32877;DHT22;19226;51.600;8.034;2022-11-15T18:51:22;14.00;99.90
32877;DHT22;19226;51.600;8.034;2022-11-15T18:53:55;14.00;99.90
32877;DHT22;19226;51.600;8.034;2022-11-15T18:56:23;14.00;99.90
32877;DHT22;19226;51.600;8.034;2022-11-15T18:58:50;14.00;99.90
32877;DHT22;19226;51.600;8.034;2022-11-15T19:01:24;14.00;99.90
32877;DHT22;19226;51.600;8.034;2022-11-15T19:03:51;14.00;99.90
32877;DHT22;19226;51.600;8.034;2022-11-15T19:06:23;14.10;99.90
32877;DHT22;19226;51.600;8.034;2022-11-15T19:08:54;14.10;99.90
32877;DHT22;19226;51.600;8.034;2022-11-15T19:11:22;14.00;99.90
32877;DHT22;19226;51.600;8.034;2022-11-15T19:13:53;14.00;99.90
32877;DHT22;19226;51.600;8.034;2022-11-15T19:16:25;14.10;99.90
32877;DHT22;19226;51.600;8.034;2022-11-15T19:18:55;14.10;99.90
32877;DHT22;19226;51.600;8.034;2022-11-15T19:21:27;14.10;99.90
32877;DHT22;19226;51.600;8.034;2022-11-15T19:23:56;14.00;99.90
32877;DHT22;19226;51.600;8.034;2022-11-15T19:26:23;14.10;99.90
32877;DHT22;19226;51.600;8.034;2022-11-15T19:28:54;14.10;99.90
32877;DHT22;19226;51.600;8.034;2022-11-15T19:31:20;14.10;99.90
32877;DHT22;19226;51.600;8.034;2022-11-15T19:33:49;14.10;99.90
32877;DHT22;19226;51.600;8.034;2022-11-15T19:36:19;14.10;99.90
32877;DHT22;19226;51.600;8.034;2022-11-15T19:38:45;14.10;99.90
32877;DHT22;19226;51.600;8.034;2022-11-15T19:41:15;14.10;99.90
32877;DHT22;19226;51.600;8.034;2022-11-15T19:43:42;14.10;99.90
32877;DHT22;19226;51.600;8.034;2022-11-15T19:46:10;14.10;99.90
32877;DHT22;19226;51.600;8.034;2022-11-15T19:48:37;14.10;99.90
32877;DHT22;19226;51.600;8.034;2022-11-15T19:51:08;14.10;99.90
32877;DHT22;19226;51.600;8.034;2022-11-15T19:53:36;14.10;99.90
32877;DHT22;19226;51.600;8.034;2022-11-15T19:56:06;14.10;99.90
32877;DHT22;19226;51.600;8.034;2022-11-15T20:01:03;14.20;99.90
32877;DHT22;19226;51.600;8.034;2022-11-15T20:03:40;14.20;99.90
32877;DHT22;19226;51.600;8.034;2022-11-15T20:06:07;14.20;99.90
32877;DHT22;19226;51.600;8.034;2022-11-15T20:08:34;14.30;99.90
32877;DHT22;19226;51.600;8.034;2022-11-15T20:11:01;14.20;99.90
32877;DHT22;19226;51.600;8.034;2022-11-15T20:13:28;14.20;99.90
32877;DHT22;19226;51.600;8.034;2022-11-15T20:15:54;14.20;99.90
32877;DHT22;19226;51.600;8.034;2022-11-15T20:18:22;14.20;99.90